Little Falls, West Virginia
Current Conditions -  °F | °C
As of 10:53 PM on Wednesday 17 Dec 2014 (Local Time) from KMGW Reporting Station
Light Snow Light Snow  
Wind Chill: 22°   Ceiling: 2300
Heat Index: 30°   Visibility: 9mi
Dew Point: 19°   Wind: 8mph
Humidity: 64%   Direction: 270°W
Pressure: 30.15"   Gusts: NA
Location:  39.5891°N, 79.8946°W
Report Text: KMGW 180353Z 27007KT 9SM -SN OVC023 M01/M07 A3015 RMK AO2 SLP220 P0000 T10111072
Loading
Personal Weather Stations






























Interactive Weather Map New forecast layout! Learn more

10-Day Weather Forecast

Advertisements
Track Severe Weather on mobile